createdAt,value
2018-07-19T00:00:50.517Z,90.18
2018-07-19T00:01:59.377Z,90.18
2018-07-19T00:03:08.641Z,89.32
2018-07-19T00:04:17.503Z,88.84
2018-07-19T00:05:26.365Z,88.74
2018-07-19T00:06:35.227Z,89.03
2018-07-19T00:07:44.386Z,88.74
2018-07-19T00:08:53.248Z,88.45
2018-07-19T00:10:02.704Z,87.98
2018-07-19T00:11:11.567Z,88.84
2018-07-19T00:12:20.431Z,89.79
2018-07-19T00:13:29.290Z,88.45
2018-07-19T00:14:38.303Z,89.22
2018-07-19T00:15:47.165Z,88.74
2018-07-19T00:16:56.030Z,88.12
2018-07-19T00:18:05.179Z,88.6
2018-07-19T00:19:14.041Z,89.41
2018-07-19T00:20:23.873Z,87.26
2018-07-19T00:21:32.734Z,87.98
2018-07-19T00:22:41.920Z,88.31
2018-07-19T00:23:50.784Z,87.74
2018-07-19T00:24:59.644Z,87.84
2018-07-19T00:26:08.506Z,87.26
2018-07-19T00:27:17.657Z,86.58
2018-07-19T00:28:26.520Z,87.55
2018-07-19T00:29:35.660Z,86.49
2018-07-19T00:30:44.521Z,85.86
2018-07-19T00:31:53.484Z,85.58
2018-07-19T00:33:02.350Z,85.86
2018-07-19T00:34:12.016Z,86.63
2018-07-19T00:35:21.174Z,85
2018-07-19T00:36:30.038Z,85.48
2018-07-19T00:37:39.050Z,85.92
2018-07-19T00:38:47.906Z,85.58
2018-07-19T00:39:56.772Z,85.34
2018-07-19T00:41:06.506Z,85.25
2018-07-19T00:42:15.656Z,86.78
2018-07-19T00:43:24.625Z,84.86
2018-07-19T00:44:34.347Z,84.77
2018-07-19T00:45:43.210Z,85.82
2018-07-19T00:46:52.071Z,85.05
2018-07-19T00:48:01.877Z,84.86
2018-07-19T00:49:11.407Z,85.92
2018-07-19T00:50:20.269Z,84.38
2018-07-19T00:51:29.130Z,85.63
2018-07-19T00:52:37.990Z,84
2018-07-19T00:53:46.849Z,84.67
2018-07-19T00:54:55.721Z,84.77
2018-07-19T00:56:04.583Z,84.48
2018-07-19T00:57:13.440Z,84.48
2018-07-19T00:58:22.586Z,83.81
2018-07-19T00:59:31.448Z,83.76
2018-07-19T01:00:40.309Z,84.48
2018-07-19T01:01:49.171Z,82.56
2018-07-19T01:02:59.017Z,82.75
2018-07-19T01:04:07.877Z,82.18
2018-07-19T01:05:16.737Z,82.52
2018-07-19T01:06:25.747Z,83.48
2018-07-19T01:07:34.604Z,81.95
2018-07-19T01:08:43.471Z,82.62
2018-07-19T01:09:53.189Z,82.04
2018-07-19T01:11:02.060Z,82.62
2018-07-19T01:12:11.515Z,82.23
2018-07-19T01:13:20.375Z,83
2018-07-19T01:14:29.235Z,81.37
2018-07-19T01:15:38.096Z,82.23
2018-07-19T01:16:47.795Z,81.75
2018-07-19T01:17:56.910Z,81.56
2018-07-19T01:19:05.770Z,81.08
2018-07-19T01:20:14.633Z,80.99
2018-07-19T01:21:23.498Z,81.37
2018-07-19T01:22:32.359Z,80.99
2018-07-19T01:23:41.228Z,81.27
2018-07-19T01:24:50.371Z,80.51
2018-07-19T01:25:59.244Z,80.79
2018-07-19T01:27:09.075Z,80.89
2018-07-19T01:28:17.936Z,79.83
2018-07-19T01:29:27.232Z,79.16
2018-07-19T01:30:36.093Z,78.4
2018-07-19T01:31:45.247Z,78.2
2018-07-19T01:32:54.392Z,77.92
2018-07-19T01:34:03.252Z,77.53
2018-07-19T01:35:12.114Z,77.15
2018-07-19T01:36:21.266Z,76.82
2018-07-19T01:37:30.131Z,76.44
2018-07-19T01:38:39.561Z,76.15
2018-07-19T01:39:48.420Z,76.44
2018-07-19T01:40:57.287Z,76.25
2018-07-19T01:42:06.430Z,76.44
2018-07-19T01:43:15.582Z,76.35
2018-07-19T01:44:24.442Z,76.15
2018-07-19T01:45:33.305Z,76.25
2018-07-19T01:46:42.260Z,75.58
2018-07-19T01:47:51.120Z,75.68
2018-07-19T01:49:00.704Z,75.68
2018-07-19T01:50:09.853Z,75.48
2018-07-19T01:51:18.713Z,74.97
2018-07-19T01:52:27.674Z,75.26
2018-07-19T01:53:36.534Z,75.2
2018-07-19T01:54:45.693Z,74.91
2018-07-19T01:55:54.554Z,74.82
2018-07-19T01:57:03.413Z,74.52
2018-07-19T01:58:12.424Z,74.72
2018-07-19T01:59:21.286Z,74.72
2018-07-19T02:00:30.429Z,75.29
2018-07-19T02:01:39.571Z,74.68
2018-07-19T02:02:48.433Z,75.35
2018-07-19T02:03:57.643Z,74.11
2018-07-19T02:05:06.507Z,74.58
2018-07-19T02:06:15.944Z,74.3
2018-07-19T02:07:24.806Z,73.91
2018-07-19T02:08:33.667Z,73.95
2018-07-19T02:09:42.883Z,73.38
2018-07-19T02:10:51.742Z,74.05
2018-07-19T02:12:00.601Z,75.16
2018-07-19T02:13:09.461Z,73.76
2018-07-19T02:14:18.321Z,73.76
2018-07-19T02:15:27.280Z,73.63
2018-07-19T02:16:36.427Z,73.82
2018-07-19T02:17:45.287Z,73.44
2018-07-19T02:18:54.146Z,73.54
2018-07-19T02:20:03.005Z,73.05
2018-07-19T02:21:11.863Z,73.15
2018-07-19T02:22:20.724Z,73.24
2018-07-19T02:23:29.584Z,73.15
2018-07-19T02:24:38.445Z,72.83
2018-07-19T02:25:47.309Z,73.02
2018-07-19T02:26:56.519Z,73.97
2018-07-19T02:28:05.685Z,73.21
2018-07-19T02:29:14.827Z,73.02
2018-07-19T02:30:23.685Z,72.92
2018-07-19T02:31:32.545Z,73.02
2018-07-19T02:32:41.408Z,72.92
2018-07-19T02:33:50.269Z,73.11
2018-07-19T02:34:59.125Z,73.21
2018-07-19T02:36:08.823Z,73.21
2018-07-19T02:37:17.682Z,73.02
2018-07-19T02:38:26.827Z,73.02
2018-07-19T02:39:35.688Z,73.3
2018-07-19T02:40:44.851Z,73.4
2018-07-19T02:41:53.712Z,73.21
2018-07-19T02:43:02.572Z,73.11
2018-07-19T02:44:11.786Z,72.92
2018-07-19T02:45:20.641Z,73.11
2018-07-19T02:46:29.501Z,73.3
2018-07-19T02:47:39.253Z,72.98
2018-07-19T02:48:48.112Z,72.98
2018-07-19T02:49:57.321Z,73.08
2018-07-19T02:51:06.478Z,72.69
2018-07-19T02:52:15.337Z,72.83
2018-07-19T02:53:24.199Z,72.54
2018-07-19T02:54:33.060Z,72.6
2018-07-19T02:55:41.971Z,72.88
2018-07-19T02:56:51.113Z,72.5
2018-07-19T02:57:59.972Z,72.98
2018-07-19T02:59:08.838Z,72.79
2018-07-19T03:00:17.696Z,72.5
2018-07-19T03:01:26.706Z,72.5
2018-07-19T03:02:35.568Z,72.31
2018-07-19T03:03:44.428Z,72.31
2018-07-19T03:04:54.042Z,72.22
2018-07-19T03:06:02.901Z,72.02
2018-07-19T03:07:11.911Z,72.12
2018-07-19T03:08:20.770Z,72.31
2018-07-19T03:09:29.630Z,72.5
2018-07-19T03:10:38.498Z,72.41
2018-07-19T03:11:47.358Z,72.12
2018-07-19T03:12:56.218Z,72.41
2018-07-19T03:14:05.080Z,72.22
2018-07-19T03:15:13.935Z,72.02
2018-07-19T03:16:22.793Z,72.22
2018-07-19T03:17:31.658Z,72.02
2018-07-19T03:18:41.170Z,72.02
2018-07-19T03:19:50.606Z,72.08
2018-07-19T03:20:59.848Z,71.93
2018-07-19T03:22:08.708Z,72.02
2018-07-19T03:23:17.573Z,72.02
2018-07-19T03:24:26.876Z,72.12
2018-07-19T03:25:35.736Z,72.5
2018-07-19T03:26:44.594Z,72.22
2018-07-19T03:27:53.457Z,72.02
2018-07-19T03:29:02.315Z,72.12
2018-07-19T03:30:11.175Z,71.83
2018-07-19T03:31:20.039Z,72.08
2018-07-19T03:32:29.403Z,72.41
2018-07-19T03:33:38.263Z,72.02
2018-07-19T03:34:47.123Z,72.28
2018-07-19T03:35:56.084Z,72.22
2018-07-19T03:37:04.945Z,71.8
2018-07-19T03:38:13.806Z,71.42
2018-07-19T03:39:22.667Z,71.61
2018-07-19T03:40:31.518Z,71.89
2018-07-19T03:41:40.378Z,71.93
2018-07-19T03:42:49.236Z,71.42
2018-07-19T03:43:58.095Z,71.55
2018-07-19T03:45:06.954Z,71.64
2018-07-19T03:46:15.812Z,71.55
2018-07-19T03:47:25.303Z,71.32
2018-07-19T03:48:34.164Z,71.22
2018-07-19T03:49:43.022Z,70.78
2018-07-19T03:50:52.172Z,70.84
2018-07-19T03:52:01.031Z,70.78
2018-07-19T03:53:09.891Z,70.4
2018-07-19T03:54:18.753Z,70.5
2018-07-19T03:55:28.490Z,70.68
2018-07-19T03:56:37.351Z,70.78
2018-07-19T03:57:46.515Z,70.27
2018-07-19T03:58:55.522Z,70.78
2018-07-19T04:00:04.382Z,70.27
2018-07-19T04:01:13.532Z,70.07
2018-07-19T04:02:22.399Z,70.07
2018-07-19T04:03:31.258Z,69.35
2018-07-19T04:04:40.117Z,69.6
2018-07-19T04:05:49.887Z,69.12
2018-07-19T04:06:58.748Z,68.93
2018-07-19T04:08:07.608Z,68.55
2018-07-19T04:09:16.472Z,68.2
2018-07-19T04:10:26.163Z,68.68
2018-07-19T04:11:35.020Z,69.06
2018-07-19T04:12:43.881Z,69.15
2018-07-19T04:13:53.029Z,69.06
2018-07-19T04:15:01.882Z,68.96
2018-07-19T04:16:10.892Z,68.68
2018-07-19T04:17:19.753Z,69.15
2018-07-19T04:18:28.621Z,69.44
2018-07-19T04:19:37.473Z,69.35
2018-07-19T04:20:46.333Z,69.54
2018-07-19T04:21:55.342Z,69.64
2018-07-19T04:23:04.203Z,69.64
2018-07-19T04:24:13.773Z,69.44
2018-07-19T04:25:22.631Z,69.64
2018-07-19T04:26:32.069Z,69.15
2018-07-19T04:27:41.220Z,69.15
2018-07-19T04:28:50.081Z,69.64
2018-07-19T04:29:58.942Z,69.35
2018-07-19T04:31:07.806Z,69.06
2018-07-19T04:32:16.712Z,69.35
2018-07-19T04:33:26.014Z,69.73
2018-07-19T04:34:34.869Z,69.35
2018-07-19T04:35:43.730Z,69.44
2018-07-19T04:36:52.590Z,69.25
2018-07-19T04:38:01.450Z,69
2018-07-19T04:39:11.108Z,68.9
2018-07-19T04:40:19.971Z,68.8
2018-07-19T04:41:28.833Z,68.9
2018-07-19T04:42:37.694Z,68.9
2018-07-19T04:43:46.841Z,69.38
2018-07-19T04:44:55.801Z,69.06
2018-07-19T04:46:04.959Z,69.76
2018-07-19T04:47:13.825Z,69.86
2018-07-19T04:48:24.288Z,69.57
2018-07-19T04:49:33.069Z,69.38
2018-07-19T04:50:41.928Z,70.24
2018-07-19T04:51:50.787Z,69.29
2018-07-19T04:52:59.650Z,69.38
2018-07-19T04:54:08.513Z,68.62
2018-07-19T04:55:18.169Z,68.42
2018-07-19T04:56:27.317Z,68.04
2018-07-19T04:57:36.178Z,67.85
2018-07-19T04:58:45.039Z,67.66
2018-07-19T04:59:53.901Z,67.76
2018-07-19T05:01:02.866Z,67.18
2018-07-19T05:02:11.731Z,67.76
2018-07-19T05:03:20.591Z,67.47
2018-07-19T05:04:29.451Z,68.04
2018-07-19T05:05:38.311Z,67.98
2018-07-19T05:06:47.171Z,68.27
2018-07-19T05:07:56.133Z,67.21
2018-07-19T05:09:05.283Z,66.93
2018-07-19T05:10:14.144Z,67.41
2018-07-19T05:11:23.005Z,66.64
2018-07-19T05:12:31.863Z,67.31
2018-07-19T05:13:40.827Z,66.35
2018-07-19T05:14:49.690Z,68.74
2018-07-19T05:15:58.549Z,66.74
2018-07-19T05:17:07.410Z,67.5
2018-07-19T05:18:16.276Z,67.79
2018-07-19T05:19:25.138Z,67.31
2018-07-19T05:20:33.998Z,67.5
2018-07-19T05:21:42.858Z,66.74
2018-07-19T05:22:51.718Z,67.6
2018-07-19T05:24:00.575Z,68.17
2018-07-19T05:25:09.588Z,69.83
2018-07-19T05:26:18.446Z,68.87
2018-07-19T05:27:27.306Z,69.17
2018-07-19T05:28:36.169Z,70.03
2018-07-19T05:29:45.032Z,69.83
2018-07-19T05:30:53.890Z,69.26
2018-07-19T05:32:02.754Z,68.97
2018-07-19T05:33:11.914Z,68.01
2018-07-19T05:34:20.774Z,68.68
2018-07-19T05:35:29.919Z,67.91
2018-07-19T05:36:38.878Z,68.11
2018-07-19T05:37:47.740Z,68.49
2018-07-19T05:38:56.603Z,67.82
2018-07-19T05:40:05.771Z,69.77
2018-07-19T05:41:14.632Z,69.58
2018-07-19T05:42:23.671Z,70.06
2018-07-19T05:43:32.935Z,69.29
2018-07-19T05:44:41.796Z,70.44
2018-07-19T05:45:50.659Z,69.77
2018-07-19T05:46:59.800Z,70.35
2018-07-19T05:48:09.103Z,69.68
2018-07-19T05:49:17.961Z,71.21
2018-07-19T05:50:26.823Z,69.96
2018-07-19T05:51:35.684Z,70.73
2018-07-19T05:52:44.544Z,71.21
2018-07-19T05:53:54.077Z,70.35
2018-07-19T05:55:03.233Z,70.64
2018-07-19T05:56:12.098Z,70.64
2018-07-19T05:57:20.957Z,71.02
2018-07-19T05:58:30.564Z,71.69
2018-07-19T05:59:40.547Z,72.45
2018-07-19T06:00:49.709Z,73.35
2018-07-19T06:01:58.569Z,71.72
2018-07-19T06:03:07.430Z,72.17
2018-07-19T06:04:17.278Z,72.3
2018-07-19T06:05:26.489Z,72.88
2018-07-19T06:06:35.350Z,72.84
2018-07-19T06:07:44.211Z,72.94
2018-07-19T06:08:53.072Z,73.51
2018-07-19T06:10:01.935Z,72.2
2018-07-19T06:11:10.944Z,73.26
2018-07-19T06:12:19.804Z,74.12
2018-07-19T06:13:28.663Z,73.83
2018-07-19T06:14:37.524Z,74.41
2018-07-19T06:15:46.387Z,74.98
2018-07-19T06:16:55.896Z,74.79
2018-07-19T06:18:05.041Z,74.89
2018-07-19T06:19:14.191Z,75.46
2018-07-19T06:20:23.052Z,75.65
2018-07-19T06:21:31.920Z,75.46
2018-07-19T06:22:40.781Z,75.95
2018-07-19T06:23:49.653Z,76.14
2018-07-19T06:24:59.163Z,76.71
2018-07-19T06:26:08.024Z,76.9
2018-07-19T06:27:16.887Z,76.9
2018-07-19T06:28:25.805Z,77.19
2018-07-19T06:29:34.612Z,77.76
2018-07-19T06:30:43.475Z,78
2018-07-19T06:31:52.632Z,78.25
2018-07-19T06:33:01.494Z,78.38
2018-07-19T06:34:10.371Z,78.77
2018-07-19T06:35:19.227Z,78.47
2018-07-19T06:36:28.089Z,78.67
2018-07-19T06:37:37.728Z,78.67
2018-07-19T06:38:46.593Z,78.57
2018-07-19T06:39:55.806Z,79.14
2018-07-19T06:41:05.003Z,79.05
2018-07-19T06:42:14.254Z,78.96
2018-07-19T06:43:23.115Z,79.44
2018-07-19T06:44:31.978Z,79.72
2018-07-19T06:45:41.205Z,80.11
2018-07-19T06:46:50.067Z,80.68
2018-07-19T06:47:58.931Z,79.91
2018-07-19T06:49:07.789Z,81.16
2018-07-19T06:50:16.650Z,81.64
2018-07-19T06:51:25.663Z,81.26
2018-07-19T06:52:34.526Z,81.74
2018-07-19T06:53:44.151Z,82.12
2018-07-19T06:54:53.315Z,81.93
2018-07-19T06:56:02.468Z,82.12
2018-07-19T06:57:11.906Z,81.87
2018-07-19T06:58:20.771Z,82.54
2018-07-19T06:59:30.519Z,83.03
2018-07-19T07:00:39.677Z,83.22
2018-07-19T07:01:48.543Z,83.89
2018-07-19T07:02:57.753Z,83.31
2018-07-19T07:04:06.615Z,84.08
2018-07-19T07:05:16.168Z,83.41
2018-07-19T07:06:25.028Z,83.8
2018-07-19T07:07:33.893Z,83.89
2018-07-19T07:08:43.107Z,84.37
2018-07-19T07:09:52.923Z,84.95
2018-07-19T07:11:01.786Z,84.95
2018-07-19T07:12:10.646Z,84.85
2018-07-19T07:13:19.510Z,85.71
2018-07-19T07:14:28.420Z,85.42
2018-07-19T07:15:37.285Z,86.72
2018-07-19T07:16:46.143Z,85.57
2018-07-19T07:17:55.006Z,85.66
2018-07-19T07:19:03.869Z,86.52
2018-07-19T07:20:12.883Z,86.14
2018-07-19T07:21:21.860Z,86.43
2018-07-19T07:22:30.609Z,86.24
2018-07-19T07:23:39.472Z,87.01
2018-07-19T07:24:48.334Z,85.57
2018-07-19T07:25:57.842Z,87.19
2018-07-19T07:27:06.998Z,86.14
2018-07-19T07:28:15.910Z,86.24
2018-07-19T07:29:25.100Z,86.52
2018-07-19T07:30:33.964Z,86.57
2018-07-19T07:31:42.829Z,85.8
2018-07-19T07:32:51.690Z,86.76
2018-07-19T07:34:00.555Z,86.66
2018-07-19T07:35:09.772Z,86.18
2018-07-19T07:36:18.635Z,86.57
2018-07-19T07:37:27.647Z,86.38
2018-07-19T07:38:36.821Z,86.38
2018-07-19T07:39:45.683Z,86.47
2018-07-19T07:40:55.517Z,86.71
2018-07-19T07:42:04.379Z,86.8
2018-07-19T07:43:13.241Z,86.8
2018-07-19T07:44:22.099Z,86.61
2018-07-19T07:45:31.300Z,87.67
2018-07-19T07:46:40.160Z,86.61
2018-07-19T07:47:49.029Z,86.8
2018-07-19T07:48:57.993Z,86.61
2018-07-19T07:50:06.855Z,86.61
2018-07-19T07:51:15.722Z,87.23
2018-07-19T07:52:24.587Z,87.96
2018-07-19T07:53:33.735Z,87.76
2018-07-19T07:54:42.598Z,86.46
2018-07-19T07:55:51.464Z,87.42
2018-07-19T07:57:00.328Z,87.81
2018-07-19T07:58:09.292Z,86.61
2018-07-19T07:59:18.158Z,85.75
2018-07-19T08:00:27.181Z,86.99
2018-07-19T08:01:36.038Z,86.75
2018-07-19T08:02:44.896Z,87.52
2018-07-19T08:03:53.759Z,85.4
2018-07-19T08:05:03.507Z,85.21
2018-07-19T08:06:12.376Z,85.64
2018-07-19T08:07:21.535Z,86.65
2018-07-19T08:08:30.402Z,87.13
2018-07-19T08:09:40.121Z,85.98
2018-07-19T08:10:48.983Z,86.12
2018-07-19T08:11:57.898Z,86.41
2018-07-19T08:13:07.048Z,86.18
2018-07-19T08:14:15.912Z,85.74
2018-07-19T08:15:24.777Z,85.54
2018-07-19T08:16:33.640Z,84.39
2018-07-19T08:17:42.604Z,84.77
2018-07-19T08:18:51.467Z,85.35
2018-07-19T08:20:00.329Z,85.44
2018-07-19T08:21:09.192Z,86.51
2018-07-19T08:22:18.057Z,85.54
2018-07-19T08:23:27.225Z,85.64
2018-07-19T08:24:36.085Z,84.77
2018-07-19T08:25:44.949Z,85.83
2018-07-19T08:26:53.817Z,85.44
2018-07-19T08:28:02.679Z,85.93
2018-07-19T08:29:11.544Z,85.54
2018-07-19T08:30:20.409Z,84.67
2018-07-19T08:31:29.869Z,84.97
2018-07-19T08:32:39.029Z,85.16
2018-07-19T08:33:47.895Z,84.05
2018-07-19T08:34:56.861Z,85.1
2018-07-19T08:36:05.744Z,84.91
2018-07-19T08:37:14.910Z,83.56
2018-07-19T08:38:24.061Z,84.81
2018-07-19T08:39:32.920Z,83.37
2018-07-19T08:40:42.913Z,82.98
2018-07-19T08:41:51.791Z,84.09
2018-07-19T08:43:00.985Z,84.09
2018-07-19T08:44:10.139Z,83.31
2018-07-19T08:45:19.004Z,83.99
2018-07-19T08:46:27.918Z,82.83
2018-07-19T08:47:36.784Z,81.1
2018-07-19T08:48:45.648Z,83.12
2018-07-19T08:49:54.511Z,81.2
2018-07-19T08:51:03.378Z,83.22
2018-07-19T08:52:12.244Z,85.43
2018-07-19T08:53:21.109Z,81.87
2018-07-19T08:54:29.973Z,81.87
2018-07-19T08:55:38.839Z,82.54
2018-07-19T08:56:47.723Z,83.61
2018-07-19T08:57:56.917Z,81.87
2018-07-19T08:59:05.781Z,82.54
2018-07-19T09:00:14.646Z,81.48
2018-07-19T09:01:23.517Z,81.77
2018-07-19T09:02:33.174Z,79.94
2018-07-19T09:03:42.040Z,80.52
2018-07-19T09:04:51.183Z,79.27
2018-07-19T09:06:00.048Z,78.59
2018-07-19T09:07:08.921Z,81.77
2018-07-19T09:08:17.783Z,80.14
2018-07-19T09:09:26.942Z,80.81
2018-07-19T09:10:35.808Z,81.24
2018-07-19T09:11:44.673Z,79.6
2018-07-19T09:12:53.540Z,78.83
2018-07-19T09:14:02.420Z,79.69
2018-07-19T09:15:11.669Z,79.6
2018-07-19T09:16:20.540Z,77.86
2018-07-19T09:17:29.704Z,77.19
2018-07-19T09:18:38.564Z,78.09
2018-07-19T09:19:47.509Z,76.75
2018-07-19T09:20:57.501Z,76.84
2018-07-19T09:22:06.365Z,75.59
2018-07-19T09:23:15.234Z,76.65
2018-07-19T09:24:24.393Z,74.62
2018-07-19T09:25:33.255Z,73.95
2018-07-19T09:26:42.956Z,70.19
2018-07-19T09:27:52.164Z,73.85
2018-07-19T09:29:01.029Z,70.86
2018-07-19T09:30:09.891Z,70.86
2018-07-19T09:31:18.753Z,70.86
2018-07-19T09:32:27.617Z,72.02
2018-07-19T09:33:37.379Z,74.33
2018-07-19T09:34:46.244Z,73.08
2018-07-19T09:35:55.107Z,73.18
2018-07-19T09:37:04.023Z,72.34
2018-07-19T09:38:13.781Z,72.06
2018-07-19T09:39:22.684Z,71
2018-07-19T09:40:31.511Z,70.13
2018-07-19T09:41:40.375Z,71.64
2018-07-19T09:42:49.579Z,74.08
2018-07-19T09:43:58.882Z,73.69
2018-07-19T09:45:08.461Z,73.41
2018-07-19T09:46:17.325Z,73.79
2018-07-19T09:47:26.189Z,72.44
2018-07-19T09:48:35.052Z,73.31
2018-07-19T09:49:44.015Z,73.69
2018-07-19T09:50:52.881Z,74.66
2018-07-19T09:52:01.747Z,73.69
2018-07-19T09:53:10.608Z,71.67
2018-07-19T09:54:19.472Z,72.38
2018-07-19T09:55:28.336Z,73.93
2018-07-19T09:56:37.202Z,71.03
2018-07-19T09:57:47.300Z,70.84
2018-07-19T09:58:56.169Z,72.38
2018-07-19T10:00:05.031Z,72.48
2018-07-19T10:01:14.340Z,71.8
2018-07-19T10:02:23.207Z,70.45
2018-07-19T10:03:33.060Z,70.68
2018-07-19T10:04:41.925Z,70.1
2018-07-19T10:05:50.826Z,70
2018-07-19T10:07:00.411Z,71.06
2018-07-19T10:08:09.277Z,72.42
2018-07-19T10:09:18.142Z,71.74
2018-07-19T10:10:27.011Z,72.61
2018-07-19T10:11:35.882Z,72.9
2018-07-19T10:12:45.191Z,73.38
2018-07-19T10:13:54.056Z,71.84
2018-07-19T10:15:02.922Z,70.78
2018-07-19T10:16:11.785Z,71.16
2018-07-19T10:17:22.128Z,72.8
2018-07-19T10:18:31.396Z,71.64
2018-07-19T10:19:40.541Z,71.55
2018-07-19T10:20:49.404Z,70.78
2018-07-19T10:21:58.270Z,68.65
2018-07-19T10:23:07.134Z,68.46
2018-07-19T10:24:16.019Z,70.39
2018-07-19T10:25:24.866Z,68.46
2018-07-19T10:26:33.731Z,68.46
2018-07-19T10:27:42.946Z,70.1
2018-07-19T10:28:51.811Z,68.26
2018-07-19T10:30:00.974Z,67.62
2018-07-19T10:31:09.836Z,68.07
2018-07-19T10:32:18.903Z,68.17
2018-07-19T10:33:28.232Z,70.29
2018-07-19T10:34:37.099Z,68.75
2018-07-19T10:35:45.966Z,67.88
2018-07-19T10:36:54.830Z,68.68
2018-07-19T10:38:03.695Z,69.07
2018-07-19T10:39:12.561Z,69.71
2018-07-19T10:40:21.713Z,69.46
2018-07-19T10:41:30.733Z,69.17
2018-07-19T10:42:39.597Z,69.46
2018-07-19T10:43:48.463Z,68.2
2018-07-19T10:44:57.333Z,68.3
2018-07-19T10:46:06.256Z,69.17
2018-07-19T10:47:15.420Z,66.88
2018-07-19T10:48:24.564Z,68.43
2018-07-19T10:49:33.431Z,69.3
2018-07-19T10:50:42.571Z,66.5
2018-07-19T10:51:51.502Z,67.36
2018-07-19T10:53:00.867Z,67.46
2018-07-19T10:54:10.011Z,66.4
2018-07-19T10:55:19.154Z,67.08
2018-07-19T10:56:28.036Z,66.63
2018-07-19T10:57:36.885Z,65.56
2018-07-19T10:58:45.907Z,65.47
2018-07-19T10:59:55.319Z,65.47
2018-07-19T11:01:04.184Z,65.5
2018-07-19T11:02:13.251Z,64.62
2018-07-19T11:03:22.119Z,66.47
2018-07-19T11:04:31.089Z,65.59
2018-07-19T11:05:39.956Z,65.2
2018-07-19T11:06:48.823Z,64.82
2018-07-19T11:07:58.013Z,65.5
2018-07-19T11:09:07.155Z,65.5
2018-07-19T11:10:16.022Z,64.72
2018-07-19T11:11:24.889Z,63.95
2018-07-19T11:12:33.754Z,64.14
2018-07-19T11:13:42.622Z,65.69
2018-07-19T11:14:51.488Z,65.08
2018-07-19T11:16:00.732Z,65.47
2018-07-19T11:17:09.599Z,65.59
2018-07-19T11:18:18.466Z,65.11
2018-07-19T11:19:27.335Z,64.75
2018-07-19T11:20:36.476Z,67.43
2018-07-19T11:21:45.617Z,65.88
2018-07-19T11:22:54.491Z,65.59
2018-07-19T11:24:03.636Z,66.37
2018-07-19T11:25:12.779Z,64.82
2018-07-19T11:26:21.918Z,63.49
2018-07-19T11:27:31.055Z,63.31
2018-07-19T11:28:39.922Z,62.72
2018-07-19T11:29:49.065Z,64.59
2018-07-19T11:30:57.930Z,62.46
2018-07-19T11:32:07.071Z,61.52
2018-07-19T11:33:15.938Z,62.69
2018-07-19T11:34:25.079Z,60.55
2018-07-19T11:35:33.947Z,60.88
2018-07-19T11:36:43.094Z,60.88
2018-07-19T11:37:51.961Z,62.04
2018-07-19T11:39:01.462Z,61.26
2018-07-19T11:40:10.331Z,61.82
2018-07-19T11:41:19.198Z,63.56
2018-07-19T11:42:28.066Z,64.53
2018-07-19T11:43:36.934Z,64.43
2018-07-19T11:44:45.803Z,63.56
2018-07-19T11:45:54.670Z,62.98
2018-07-19T11:47:03.536Z,63.37
2018-07-19T11:48:12.404Z,63.37
2018-07-19T11:49:21.552Z,63.07
2018-07-19T11:50:30.570Z,63.75
2018-07-19T11:51:39.438Z,63.56
2018-07-19T11:52:48.305Z,64.24
2018-07-19T11:53:57.172Z,63.85
2018-07-19T11:55:06.036Z,64.17
2018-07-19T11:56:15.182Z,63.49
2018-07-19T11:57:24.053Z,63.4
2018-07-19T11:58:33.201Z,64.07
2018-07-19T11:59:42.344Z,64.07
2018-07-19T12:00:51.243Z,63.2
2018-07-19T12:02:00.536Z,63.01
2018-07-19T12:03:09.404Z,63.04
2018-07-19T12:04:18.278Z,62.46
2018-07-19T12:05:27.148Z,63.36
2018-07-19T12:06:36.293Z,62.59
2018-07-19T12:07:45.310Z,62.29
2018-07-19T12:08:54.180Z,62.98
2018-07-19T12:10:03.051Z,62.49
2018-07-19T12:11:12.202Z,61.84
2018-07-19T12:12:21.074Z,62.32
2018-07-19T12:13:30.098Z,60.68
2018-07-19T12:14:39.247Z,60.48
2018-07-19T12:15:48.115Z,60.87
2018-07-19T12:16:56.985Z,60.12
2018-07-19T12:18:05.928Z,61.09
2018-07-19T12:19:14.728Z,60.61
2018-07-19T12:20:23.603Z,61.97
2018-07-19T12:21:32.751Z,60.09
2018-07-19T12:22:41.623Z,60.48
2018-07-19T12:23:50.768Z,60.58
2018-07-19T12:24:59.641Z,61.65
2018-07-19T12:26:08.800Z,61.04
2018-07-19T12:27:17.669Z,60.94
2018-07-19T12:28:26.537Z,62.19
2018-07-19T12:29:35.408Z,60.94
2018-07-19T12:30:44.276Z,60.28
2018-07-19T12:31:53.160Z,58.61
2018-07-19T12:33:02.030Z,59.38
2018-07-19T12:34:10.901Z,57.47
2018-07-19T12:35:19.779Z,56.5
2018-07-19T12:36:28.749Z,56.72
2018-07-19T12:37:37.620Z,56.92
2018-07-19T12:38:46.493Z,58.37
2018-07-19T12:39:55.365Z,58.31
2018-07-19T12:41:04.526Z,58.98
2018-07-19T12:42:13.827Z,59.69
2018-07-19T12:43:22.701Z,58.98
2018-07-19T12:44:31.577Z,58.69
2018-07-19T12:45:40.452Z,59.59
2018-07-19T12:46:49.327Z,59.76
2018-07-19T12:47:58.351Z,59.08
2018-07-19T12:49:07.229Z,59.28
2018-07-19T12:50:16.655Z,59.18
2018-07-19T12:51:25.525Z,58.59
2018-07-19T12:52:34.400Z,58.4
2018-07-19T12:53:43.424Z,59.67
2018-07-19T12:54:52.293Z,60.22
2018-07-19T12:56:01.162Z,58.95
2018-07-19T12:57:10.035Z,59.34
2018-07-19T12:58:18.904Z,59.34
2018-07-19T12:59:27.774Z,59.44
2018-07-19T13:00:36.646Z,60.8
2018-07-19T13:01:45.796Z,59.44
2018-07-19T13:02:54.672Z,60.12
2018-07-19T13:04:03.541Z,59.25
2018-07-19T13:05:12.840Z,60.41
2018-07-19T13:06:21.710Z,59.74
2018-07-19T13:07:30.584Z,60.31
2018-07-19T13:08:39.459Z,60.93
2018-07-19T13:09:48.610Z,60.28
2018-07-19T13:10:57.835Z,58.82
2018-07-19T13:12:07.267Z,59.23
2018-07-19T13:13:16.416Z,58.95
2018-07-19T13:14:25.288Z,58.56
2018-07-19T13:15:34.166Z,57.68
2018-07-19T13:16:43.038Z,57.12
2018-07-19T13:17:51.911Z,56.64
2018-07-19T13:19:00.787Z,56.84
2018-07-19T13:20:09.664Z,55.99
2018-07-19T13:21:18.539Z,55.3
2018-07-19T13:22:27.518Z,55.72
2018-07-19T13:23:36.398Z,55.4
2018-07-19T13:24:45.548Z,56.3
2018-07-19T13:25:54.419Z,55.5
2018-07-19T13:27:03.297Z,54.46
2018-07-19T13:28:12.180Z,54.16
2018-07-19T13:29:21.059Z,53.7
2018-07-19T13:30:29.937Z,53.6
2018-07-19T13:31:39.090Z,53.5
2018-07-19T13:32:47.970Z,54.48
2018-07-19T13:33:56.998Z,54.58
2018-07-19T13:35:05.871Z,53.41
2018-07-19T13:36:14.747Z,52.26
2018-07-19T13:37:23.625Z,51.09
2018-07-19T13:38:32.505Z,53.24
2018-07-19T13:39:41.670Z,52.26
2018-07-19T13:40:50.547Z,51.61
2018-07-19T13:41:59.423Z,51.48
2018-07-19T13:43:08.307Z,51.12
2018-07-19T13:44:17.182Z,51.78
2018-07-19T13:45:26.109Z,51.58
2018-07-19T13:46:34.984Z,50.6
2018-07-19T13:47:43.859Z,52.56
2018-07-19T13:48:53.014Z,51.85
2018-07-19T13:50:01.890Z,51.26
2018-07-19T13:51:11.048Z,50.97
2018-07-19T13:52:19.923Z,50.99
2018-07-19T13:53:28.797Z,50.6
2018-07-19T13:54:37.674Z,50.21
2018-07-19T13:55:46.551Z,50.24
2018-07-19T13:56:55.426Z,50.82
2018-07-19T13:58:04.305Z,50.73
2018-07-19T13:59:13.181Z,51.21
2018-07-19T14:00:22.061Z,51.31
2018-07-19T14:01:30.934Z,51.02
2018-07-19T14:02:40.255Z,50.36
2018-07-19T14:03:49.115Z,48.88
2018-07-19T14:04:57.994Z,49.39
2018-07-19T14:06:07.164Z,48.54
2018-07-19T14:07:20.204Z,48.34
2018-07-19T14:08:29.080Z,48.24
2018-07-19T14:09:37.960Z,46.41
2018-07-19T14:10:46.833Z,47.56
2018-07-19T14:11:55.711Z,47.56
2018-07-19T14:13:04.595Z,47.85
2018-07-19T14:14:13.748Z,47.97
2018-07-19T14:15:22.924Z,46.99
2018-07-19T14:16:32.079Z,48.94
2018-07-19T14:17:40.961Z,47.85
2018-07-19T14:18:49.881Z,48.05
2018-07-19T14:19:59.815Z,47.58
2018-07-19T14:21:08.691Z,46.99
2018-07-19T14:22:17.568Z,47.77
2018-07-19T14:23:26.456Z,47.67
2018-07-19T14:24:35.615Z,47.95
2018-07-19T14:25:44.495Z,47.95
2018-07-19T14:26:53.648Z,47.46
2018-07-19T14:28:02.799Z,47.07
2018-07-19T14:29:11.678Z,46.7
2018-07-19T14:30:20.554Z,45.72
2018-07-19T14:31:29.703Z,45.84
2018-07-19T14:32:38.864Z,46.21
2018-07-19T14:33:47.742Z,47.02
2018-07-19T14:34:56.623Z,45.14
2018-07-19T14:36:06.051Z,45.72
2018-07-19T14:37:15.079Z,45.06
2018-07-19T14:38:24.233Z,44.96
2018-07-19T14:39:33.113Z,44.1
2018-07-19T14:40:41.997Z,44.01
2018-07-19T14:41:50.880Z,44.32
2018-07-19T14:42:59.857Z,43.63
2018-07-19T14:44:08.737Z,43.66
2018-07-19T14:45:17.893Z,42.88
2018-07-19T14:46:26.771Z,42.29
2018-07-19T14:47:36.208Z,43.07
2018-07-19T14:48:45.137Z,42.78
2018-07-19T14:49:54.017Z,42.7
2018-07-19T14:51:02.893Z,42.8
2018-07-19T14:52:12.332Z,43.21